createdAt,value
2016-11-16T00:00:09.307Z,918.01
2016-11-16T00:00:26.196Z,918.04
2016-11-16T00:00:42.933Z,918
2016-11-16T00:00:59.759Z,918
2016-11-16T00:01:16.486Z,918.02
2016-11-16T00:01:33.233Z,918.02
2016-11-16T00:01:49.996Z,918.05
2016-11-16T00:02:06.699Z,918.07
2016-11-16T00:02:23.432Z,918.01
2016-11-16T00:02:40.190Z,918.04
2016-11-16T00:02:56.968Z,918.04
2016-11-16T00:03:13.695Z,918.08
2016-11-16T00:03:30.431Z,918.04
2016-11-16T00:03:47.141Z,918.04
2016-11-16T00:04:03.913Z,918.03
2016-11-16T00:04:20.764Z,918.04
2016-11-16T00:04:37.482Z,918.03
2016-11-16T00:04:54.201Z,918.03
2016-11-16T00:05:10.918Z,918.07
2016-11-16T00:05:27.652Z,918.04
2016-11-16T00:05:44.429Z,918.04
2016-11-16T00:06:01.182Z,918.03
2016-11-16T00:06:18.403Z,917.99
2016-11-16T00:06:35.130Z,917.98
2016-11-16T00:06:51.876Z,917.99
2016-11-16T00:07:08.617Z,917.95
2016-11-16T00:07:25.360Z,917.98
2016-11-16T00:07:42.071Z,917.93
2016-11-16T00:07:58.791Z,917.96
2016-11-16T00:08:15.545Z,917.98
2016-11-16T00:08:32.246Z,917.94
2016-11-16T00:08:49.525Z,917.99
2016-11-16T00:09:06.263Z,917.96
2016-11-16T00:09:22.999Z,917.95
2016-11-16T00:09:39.746Z,917.97
2016-11-16T00:09:56.463Z,917.95
2016-11-16T00:10:13.224Z,917.94
2016-11-16T00:10:29.931Z,917.95
2016-11-16T00:10:46.661Z,917.98
2016-11-16T00:11:03.377Z,917.95
2016-11-16T00:11:20.124Z,917.91
2016-11-16T00:11:36.854Z,917.97
2016-11-16T00:11:53.575Z,917.94
2016-11-16T00:12:10.281Z,917.98
2016-11-16T00:12:27.020Z,917.95
2016-11-16T00:12:43.775Z,917.96
2016-11-16T00:13:00.500Z,917.97
2016-11-16T00:13:17.760Z,917.95
2016-11-16T00:13:35.020Z,917.96
2016-11-16T00:13:51.756Z,917.93
2016-11-16T00:14:08.500Z,917.91
2016-11-16T00:14:25.238Z,917.93
2016-11-16T00:14:41.969Z,917.92
2016-11-16T00:14:58.665Z,917.92
2016-11-16T00:15:15.412Z,917.95
2016-11-16T00:15:32.175Z,917.92
2016-11-16T00:15:48.984Z,917.93
2016-11-16T00:16:05.862Z,917.93
2016-11-16T00:16:22.717Z,917.91
2016-11-16T00:16:39.592Z,917.91
2016-11-16T00:16:56.700Z,917.9
2016-11-16T00:17:14.628Z,917.92
2016-11-16T00:17:31.431Z,917.9
2016-11-16T00:17:48.206Z,917.89
2016-11-16T00:18:05.007Z,917.88
2016-11-16T00:18:21.815Z,917.92
2016-11-16T00:18:38.530Z,917.88
2016-11-16T00:18:55.428Z,917.91
2016-11-16T00:19:12.294Z,917.87
2016-11-16T00:19:29.264Z,917.89
2016-11-16T00:19:46.540Z,917.87
2016-11-16T00:20:03.378Z,917.89
2016-11-16T00:20:20.184Z,917.86
2016-11-16T00:20:37.056Z,917.87
2016-11-16T00:20:53.831Z,917.85
2016-11-16T00:21:10.680Z,917.85
2016-11-16T00:21:27.390Z,917.83
2016-11-16T00:21:44.156Z,917.81
2016-11-16T00:22:01.397Z,917.81
2016-11-16T00:22:18.217Z,917.81
2016-11-16T00:22:34.957Z,917.81
2016-11-16T00:22:51.684Z,917.8
2016-11-16T00:23:08.719Z,917.79
2016-11-16T00:23:25.470Z,917.77
2016-11-16T00:23:42.221Z,917.75
2016-11-16T00:23:59.034Z,917.76
2016-11-16T00:24:15.798Z,917.75
2016-11-16T00:24:33.054Z,917.72
2016-11-16T00:24:49.986Z,917.74
2016-11-16T00:25:06.876Z,917.71
2016-11-16T00:25:23.740Z,917.7
2016-11-16T00:25:40.837Z,917.76
2016-11-16T00:25:57.563Z,917.74
2016-11-16T00:26:14.895Z,917.68
2016-11-16T00:26:31.627Z,917.69
2016-11-16T00:26:48.360Z,917.71
2016-11-16T00:27:05.088Z,917.71
2016-11-16T00:27:21.827Z,917.73
2016-11-16T00:27:38.577Z,917.7
2016-11-16T00:27:55.302Z,917.68
2016-11-16T00:28:12.551Z,917.69
2016-11-16T00:28:29.272Z,917.74
2016-11-16T00:28:45.988Z,917.72
2016-11-16T00:29:02.706Z,917.7
2016-11-16T00:29:19.493Z,917.69
2016-11-16T00:29:36.264Z,917.75
2016-11-16T00:29:52.975Z,917.76
2016-11-16T00:30:09.751Z,917.77
2016-11-16T00:30:26.493Z,917.8
2016-11-16T00:30:43.224Z,917.8
2016-11-16T00:30:59.943Z,917.76
2016-11-16T00:31:16.667Z,917.76
2016-11-16T00:31:33.419Z,917.75
2016-11-16T00:31:50.178Z,917.73
2016-11-16T00:32:06.910Z,917.73
2016-11-16T00:32:23.616Z,917.74
2016-11-16T00:32:40.343Z,917.71
2016-11-16T00:32:57.056Z,917.74
2016-11-16T00:33:13.799Z,917.73
2016-11-16T00:33:30.534Z,917.71
2016-11-16T00:33:47.274Z,917.69
2016-11-16T00:34:04.012Z,917.73
2016-11-16T00:34:20.732Z,917.71
2016-11-16T00:34:37.451Z,917.75
2016-11-16T00:34:54.163Z,917.76
2016-11-16T00:35:10.893Z,917.73
2016-11-16T00:35:27.623Z,917.74
2016-11-16T00:35:44.366Z,917.76
2016-11-16T00:36:01.100Z,917.75
2016-11-16T00:36:17.830Z,917.72
2016-11-16T00:36:34.578Z,917.75
2016-11-16T00:36:51.302Z,917.71
2016-11-16T00:37:08.032Z,917.72
2016-11-16T00:37:24.753Z,917.77
2016-11-16T00:37:41.471Z,917.77
2016-11-16T00:37:58.694Z,917.78
2016-11-16T00:38:15.480Z,917.78
2016-11-16T00:38:32.209Z,917.79
2016-11-16T00:38:48.948Z,917.79
2016-11-16T00:39:05.649Z,917.79
2016-11-16T00:39:22.484Z,917.78
2016-11-16T00:39:39.217Z,917.78
2016-11-16T00:39:55.929Z,917.78
2016-11-16T00:40:12.655Z,917.79
2016-11-16T00:40:29.375Z,917.76
2016-11-16T00:40:46.119Z,917.77
2016-11-16T00:41:02.852Z,917.77
2016-11-16T00:41:19.584Z,917.74
2016-11-16T00:41:36.323Z,917.78
2016-11-16T00:41:53.046Z,917.75
2016-11-16T00:42:09.765Z,917.76
2016-11-16T00:42:26.488Z,917.76
2016-11-16T00:42:43.223Z,917.73
2016-11-16T00:42:59.994Z,917.72
2016-11-16T00:43:16.691Z,917.73
2016-11-16T00:43:33.407Z,917.71
2016-11-16T00:43:50.105Z,917.73
2016-11-16T00:44:06.836Z,917.73
2016-11-16T00:44:23.561Z,917.69
2016-11-16T00:44:40.636Z,917.66
2016-11-16T00:44:57.371Z,917.65
2016-11-16T00:45:14.079Z,917.68
2016-11-16T00:45:30.802Z,917.66
2016-11-16T00:45:47.509Z,917.68
2016-11-16T00:46:04.241Z,917.68
2016-11-16T00:46:20.983Z,917.66
2016-11-16T00:46:37.722Z,917.67
2016-11-16T00:46:54.471Z,917.66
2016-11-16T00:47:11.218Z,917.65
2016-11-16T00:47:27.942Z,917.63
2016-11-16T00:47:44.657Z,917.63
2016-11-16T00:48:01.386Z,917.67
2016-11-16T00:48:18.121Z,917.62
2016-11-16T00:48:34.845Z,917.65
2016-11-16T00:48:51.598Z,917.65
2016-11-16T00:49:08.366Z,917.63
2016-11-16T00:49:25.701Z,917.61
2016-11-16T00:49:42.430Z,917.63
2016-11-16T00:49:59.137Z,917.63
2016-11-16T00:50:15.860Z,917.63
2016-11-16T00:50:32.617Z,917.66
2016-11-16T00:50:49.317Z,917.65
2016-11-16T00:51:06.038Z,917.61
2016-11-16T00:51:22.778Z,917.64
2016-11-16T00:51:39.536Z,917.66
2016-11-16T00:51:56.247Z,917.6
2016-11-16T00:52:12.950Z,917.63
2016-11-16T00:52:29.686Z,917.57
2016-11-16T00:52:46.430Z,917.56
2016-11-16T00:53:03.193Z,917.6
2016-11-16T00:53:19.934Z,917.61
2016-11-16T00:53:36.666Z,917.57
2016-11-16T00:53:53.387Z,917.56
2016-11-16T00:54:10.139Z,917.55
2016-11-16T00:54:26.969Z,917.57
2016-11-16T00:54:43.730Z,917.56
2016-11-16T00:55:00.458Z,917.55
2016-11-16T00:55:17.382Z,917.58
2016-11-16T00:55:34.112Z,917.56
2016-11-16T00:55:50.821Z,917.54
2016-11-16T00:56:08.028Z,917.53
2016-11-16T00:56:24.772Z,917.54
2016-11-16T00:56:41.480Z,917.56
2016-11-16T00:56:58.195Z,917.57
2016-11-16T00:57:14.934Z,917.58
2016-11-16T00:57:31.646Z,917.53
2016-11-16T00:57:48.358Z,917.57
2016-11-16T00:58:05.136Z,917.56
2016-11-16T00:58:21.854Z,917.56
2016-11-16T00:58:38.590Z,917.56
2016-11-16T00:58:55.350Z,917.59
2016-11-16T00:59:12.071Z,917.57
2016-11-16T00:59:28.824Z,917.57
2016-11-16T00:59:45.563Z,917.56
2016-11-16T01:00:02.302Z,917.57
2016-11-16T01:00:19.017Z,917.6
2016-11-16T01:00:35.738Z,917.56
2016-11-16T01:00:52.460Z,917.6
2016-11-16T01:01:09.192Z,917.59
2016-11-16T01:01:25.934Z,917.59
2016-11-16T01:01:42.648Z,917.56
2016-11-16T01:01:59.386Z,917.54
2016-11-16T01:02:16.150Z,917.63
2016-11-16T01:02:33.600Z,917.62
2016-11-16T01:02:50.369Z,917.62
2016-11-16T01:03:07.101Z,917.62
2016-11-16T01:03:23.852Z,917.64
2016-11-16T01:03:40.576Z,917.61
2016-11-16T01:03:57.300Z,917.64
2016-11-16T01:04:14.034Z,917.61
2016-11-16T01:04:30.759Z,917.66
2016-11-16T01:04:47.506Z,917.67
2016-11-16T01:05:04.199Z,917.65
2016-11-16T01:05:20.901Z,917.65
2016-11-16T01:05:37.616Z,917.66
2016-11-16T01:05:54.330Z,917.66
2016-11-16T01:06:11.064Z,917.63
2016-11-16T01:06:27.820Z,917.68
2016-11-16T01:06:44.536Z,917.67
2016-11-16T01:07:01.264Z,917.68
2016-11-16T01:07:17.997Z,917.64
2016-11-16T01:07:34.705Z,917.65
2016-11-16T01:07:51.394Z,917.67
2016-11-16T01:08:08.131Z,917.64
2016-11-16T01:08:24.900Z,917.7
2016-11-16T01:08:41.675Z,917.7
2016-11-16T01:08:58.380Z,917.71
2016-11-16T01:09:15.101Z,917.69
2016-11-16T01:09:32.088Z,917.7
2016-11-16T01:09:48.802Z,917.71
2016-11-16T01:10:05.529Z,917.71
2016-11-16T01:10:22.233Z,917.72
2016-11-16T01:10:38.956Z,917.71
2016-11-16T01:10:55.695Z,917.66
2016-11-16T01:11:12.415Z,917.69
2016-11-16T01:11:29.377Z,917.67
2016-11-16T01:11:46.089Z,917.68
2016-11-16T01:12:02.883Z,917.65
2016-11-16T01:12:20.132Z,917.67
2016-11-16T01:12:36.902Z,917.64
2016-11-16T01:12:53.741Z,917.68
2016-11-16T01:13:10.595Z,917.69
2016-11-16T01:13:27.409Z,917.64
2016-11-16T01:13:44.151Z,917.7
2016-11-16T01:14:00.854Z,917.66
2016-11-16T01:14:17.593Z,917.64
2016-11-16T01:14:34.834Z,917.66
2016-11-16T01:14:51.585Z,917.64
2016-11-16T01:15:08.343Z,917.61
2016-11-16T01:15:25.071Z,917.63
2016-11-16T01:15:41.802Z,917.66
2016-11-16T01:15:58.536Z,917.68
2016-11-16T01:16:16.103Z,917.65
2016-11-16T01:16:32.887Z,917.64
2016-11-16T01:16:49.644Z,917.63
2016-11-16T01:17:06.355Z,917.62
2016-11-16T01:17:23.061Z,917.67
2016-11-16T01:17:39.876Z,917.65
2016-11-16T01:17:56.862Z,917.66
2016-11-16T01:18:13.712Z,917.65
2016-11-16T01:18:32.604Z,917.62
2016-11-16T01:18:49.318Z,917.61
2016-11-16T01:19:06.078Z,917.59
2016-11-16T01:19:22.827Z,917.59
2016-11-16T01:19:39.564Z,917.62
2016-11-16T01:19:56.263Z,917.6
2016-11-16T01:20:13.052Z,917.57
2016-11-16T01:20:29.838Z,917.56
2016-11-16T01:20:46.548Z,917.58
2016-11-16T01:21:03.420Z,917.58
2016-11-16T01:21:20.115Z,917.51
2016-11-16T01:21:36.874Z,917.52
2016-11-16T01:21:53.592Z,917.53
2016-11-16T01:22:10.375Z,917.51
2016-11-16T01:22:27.118Z,917.51
2016-11-16T01:22:43.851Z,917.49
2016-11-16T01:23:00.646Z,917.51
2016-11-16T01:23:31.966Z,917.49
2016-11-16T01:23:49.248Z,917.49
2016-11-16T01:24:05.985Z,917.51
2016-11-16T01:24:22.703Z,917.49
2016-11-16T01:24:39.536Z,917.5
2016-11-16T01:24:56.381Z,917.5
2016-11-16T01:25:13.169Z,917.51
2016-11-16T01:25:30.177Z,917.48
2016-11-16T01:25:46.945Z,917.46
2016-11-16T01:26:04.264Z,917.54
2016-11-16T01:26:21.291Z,917.49
2016-11-16T01:26:38.056Z,917.53
2016-11-16T01:26:54.814Z,917.5
2016-11-16T01:27:12.070Z,917.51
2016-11-16T01:27:28.787Z,917.5
2016-11-16T01:27:45.515Z,917.54
2016-11-16T01:28:02.766Z,917.48
2016-11-16T01:28:19.501Z,917.51
2016-11-16T01:28:36.219Z,917.46
2016-11-16T01:28:52.950Z,917.52
2016-11-16T01:29:09.685Z,917.5
2016-11-16T01:29:26.414Z,917.52
2016-11-16T01:29:43.139Z,917.49
2016-11-16T01:29:59.852Z,917.48
2016-11-16T01:30:16.592Z,917.52
2016-11-16T01:30:33.326Z,917.5
2016-11-16T01:30:50.052Z,917.53
2016-11-16T01:31:06.767Z,917.51
2016-11-16T01:31:23.468Z,917.52
2016-11-16T01:31:40.201Z,917.53
2016-11-16T01:31:56.960Z,917.53
2016-11-16T01:32:13.708Z,917.52
2016-11-16T01:32:30.450Z,917.56
2016-11-16T01:32:47.199Z,917.5
2016-11-16T01:33:04.052Z,917.57
2016-11-16T01:33:20.856Z,917.58
2016-11-16T01:33:37.554Z,917.53
2016-11-16T01:33:54.292Z,917.52
2016-11-16T01:34:11.072Z,917.53
2016-11-16T01:34:42.794Z,917.56
2016-11-16T01:34:59.537Z,917.59
2016-11-16T01:35:16.268Z,917.53
2016-11-16T01:35:33.010Z,917.58
2016-11-16T01:35:49.768Z,917.55
2016-11-16T01:36:06.507Z,917.58
2016-11-16T01:36:23.228Z,917.58
2016-11-16T01:36:39.985Z,917.58
2016-11-16T01:36:56.698Z,917.57
2016-11-16T01:37:13.487Z,917.56
2016-11-16T01:37:30.213Z,917.58
2016-11-16T01:37:46.931Z,917.58
2016-11-16T01:38:03.638Z,917.58
2016-11-16T01:38:20.396Z,917.59
2016-11-16T01:38:37.137Z,917.6
2016-11-16T01:38:53.876Z,917.61
2016-11-16T01:39:10.618Z,917.57
2016-11-16T01:39:27.375Z,917.61
2016-11-16T01:39:44.087Z,917.62
2016-11-16T01:40:00.802Z,917.62
2016-11-16T01:40:18.047Z,917.65
2016-11-16T01:40:34.787Z,917.64
2016-11-16T01:40:51.527Z,917.62
2016-11-16T01:41:08.241Z,917.6
2016-11-16T01:41:25.003Z,917.6
2016-11-16T01:41:41.740Z,917.63
2016-11-16T01:41:58.472Z,917.61
2016-11-16T01:42:15.160Z,917.59
2016-11-16T01:42:31.851Z,917.61
2016-11-16T01:42:49.105Z,917.6
2016-11-16T01:43:05.867Z,917.6
2016-11-16T01:43:22.601Z,917.62
2016-11-16T01:43:39.318Z,917.59
2016-11-16T01:43:56.033Z,917.63
2016-11-16T01:44:12.759Z,917.62
2016-11-16T01:44:29.608Z,917.61
2016-11-16T01:44:46.358Z,917.59
2016-11-16T01:45:03.104Z,917.58
2016-11-16T01:45:19.818Z,917.63
2016-11-16T01:45:36.544Z,917.59
2016-11-16T01:45:53.282Z,917.6
2016-11-16T01:46:10.004Z,917.61
2016-11-16T01:46:26.734Z,917.63
2016-11-16T01:46:43.468Z,917.6
2016-11-16T01:47:00.239Z,917.59
2016-11-16T01:47:16.974Z,917.62
2016-11-16T01:47:33.662Z,917.6
2016-11-16T01:47:50.424Z,917.6
2016-11-16T01:48:07.134Z,917.58
2016-11-16T01:48:23.889Z,917.55
2016-11-16T01:48:40.622Z,917.55
2016-11-16T01:48:57.318Z,917.53
2016-11-16T01:49:14.044Z,917.54
2016-11-16T01:49:30.767Z,917.53
2016-11-16T01:49:47.518Z,917.51
2016-11-16T01:50:04.247Z,917.53
2016-11-16T01:50:20.992Z,917.52
2016-11-16T01:50:37.699Z,917.52
2016-11-16T01:50:54.421Z,917.48
2016-11-16T01:51:11.167Z,917.49
2016-11-16T01:51:27.936Z,917.49
2016-11-16T01:51:44.737Z,917.46
2016-11-16T01:52:01.445Z,917.49
2016-11-16T01:52:18.154Z,917.46
2016-11-16T01:52:34.897Z,917.49
2016-11-16T01:52:51.667Z,917.46
2016-11-16T01:53:08.401Z,917.46
2016-11-16T01:53:25.197Z,917.41
2016-11-16T01:53:41.930Z,917.43
2016-11-16T01:53:58.650Z,917.45
2016-11-16T01:54:15.360Z,917.42
2016-11-16T01:54:32.202Z,917.39
2016-11-16T01:54:48.939Z,917.39
2016-11-16T01:55:05.695Z,917.35
2016-11-16T01:55:22.418Z,917.32
2016-11-16T01:55:39.155Z,917.31
2016-11-16T01:55:55.915Z,917.34
2016-11-16T01:56:12.643Z,917.34
2016-11-16T01:56:29.367Z,917.31
2016-11-16T01:56:46.135Z,917.29
2016-11-16T01:57:02.899Z,917.29
2016-11-16T01:57:19.597Z,917.27
2016-11-16T01:57:36.447Z,917.3
2016-11-16T01:57:53.223Z,917.25
2016-11-16T01:58:09.961Z,917.26
2016-11-16T01:58:26.781Z,917.25
2016-11-16T01:58:43.521Z,917.28
2016-11-16T01:59:00.247Z,917.26
2016-11-16T01:59:16.975Z,917.23
2016-11-16T01:59:33.805Z,917.27
2016-11-16T01:59:50.543Z,917.28
2016-11-16T02:00:07.258Z,917.23
2016-11-16T02:00:23.960Z,917.24
2016-11-16T02:00:40.700Z,917.3
2016-11-16T02:00:57.463Z,917.25
2016-11-16T02:01:14.193Z,917.23
2016-11-16T02:01:30.920Z,917.25
2016-11-16T02:01:47.719Z,917.29
2016-11-16T02:02:04.433Z,917.26
2016-11-16T02:02:21.210Z,917.27
2016-11-16T02:02:37.926Z,917.28
2016-11-16T02:02:54.701Z,917.29
2016-11-16T02:03:11.436Z,917.26
2016-11-16T02:03:28.157Z,917.28
2016-11-16T02:03:44.879Z,917.3
2016-11-16T02:04:01.654Z,917.31
2016-11-16T02:04:18.378Z,917.34
2016-11-16T02:04:36.238Z,917.32
2016-11-16T02:04:52.971Z,917.32
2016-11-16T02:05:09.779Z,917.3
2016-11-16T02:05:26.482Z,917.33
2016-11-16T02:05:43.248Z,917.32
2016-11-16T02:06:00.517Z,917.29
2016-11-16T02:06:17.255Z,917.3
2016-11-16T02:06:34.002Z,917.32
2016-11-16T02:06:50.755Z,917.34
2016-11-16T02:07:07.472Z,917.3
2016-11-16T02:07:24.196Z,917.29
2016-11-16T02:07:40.896Z,917.28
2016-11-16T02:07:57.598Z,917.28
2016-11-16T02:08:14.300Z,917.28
2016-11-16T02:08:31.023Z,917.26
2016-11-16T02:08:47.752Z,917.29
2016-11-16T02:09:04.490Z,917.27
2016-11-16T02:09:21.220Z,917.22
2016-11-16T02:09:37.954Z,917.25
2016-11-16T02:09:54.667Z,917.27
2016-11-16T02:10:11.402Z,917.3
2016-11-16T02:10:28.176Z,917.29
2016-11-16T02:10:45.430Z,917.3
2016-11-16T02:11:02.120Z,917.27
2016-11-16T02:11:18.884Z,917.25
2016-11-16T02:11:35.613Z,917.29
2016-11-16T02:11:52.785Z,917.25
2016-11-16T02:12:09.542Z,917.29
2016-11-16T02:12:26.264Z,917.25
2016-11-16T02:12:43.037Z,917.29
2016-11-16T02:12:59.820Z,917.29
2016-11-16T02:13:16.539Z,917.29
2016-11-16T02:13:33.259Z,917.3
2016-11-16T02:13:49.983Z,917.32
2016-11-16T02:14:06.711Z,917.3
2016-11-16T02:14:23.416Z,917.31
2016-11-16T02:14:41.290Z,917.28
2016-11-16T02:14:57.981Z,917.27
2016-11-16T02:15:14.739Z,917.23
2016-11-16T02:15:31.450Z,917.29
2016-11-16T02:15:48.179Z,917.24
2016-11-16T02:16:04.912Z,917.23
2016-11-16T02:16:21.638Z,917.25
2016-11-16T02:16:38.362Z,917.24
2016-11-16T02:16:55.082Z,917.25
2016-11-16T02:17:11.840Z,917.27
2016-11-16T02:17:28.567Z,917.26
2016-11-16T02:17:45.301Z,917.25
2016-11-16T02:18:02.012Z,917.24
2016-11-16T02:18:18.764Z,917.22
2016-11-16T02:18:35.477Z,917.2
2016-11-16T02:18:52.309Z,917.21
2016-11-16T02:19:09.025Z,917.21
2016-11-16T02:19:25.731Z,917.21
2016-11-16T02:19:42.445Z,917.19
2016-11-16T02:19:59.175Z,917.21
2016-11-16T02:20:16.149Z,917.17
2016-11-16T02:20:32.940Z,917.22
2016-11-16T02:20:49.631Z,917.23
2016-11-16T02:21:06.409Z,917.2
2016-11-16T02:21:23.228Z,917.21
2016-11-16T02:21:39.956Z,917.15
2016-11-16T02:21:56.666Z,917.22
2016-11-16T02:22:13.400Z,917.18
2016-11-16T02:22:30.127Z,917.2
2016-11-16T02:22:46.832Z,917.2
2016-11-16T02:23:03.569Z,917.23
2016-11-16T02:23:20.294Z,917.22
2016-11-16T02:23:37.024Z,917.21
2016-11-16T02:23:54.291Z,917.17
2016-11-16T02:24:11.014Z,917.16
2016-11-16T02:24:27.727Z,917.19
2016-11-16T02:24:44.539Z,917.2
2016-11-16T02:25:01.272Z,917.18
2016-11-16T02:25:18.521Z,917.22
2016-11-16T02:25:35.218Z,917.19
2016-11-16T02:25:51.910Z,917.2
2016-11-16T02:26:08.657Z,917.21
2016-11-16T02:26:25.388Z,917.19
2016-11-16T02:26:42.136Z,917.21
2016-11-16T02:26:58.874Z,917.22
2016-11-16T02:27:15.595Z,917.19
2016-11-16T02:27:32.325Z,917.21
2016-11-16T02:27:49.070Z,917.21
2016-11-16T02:28:05.789Z,917.17
2016-11-16T02:28:22.521Z,917.15
2016-11-16T02:28:39.254Z,917.18
2016-11-16T02:28:55.968Z,917.17
2016-11-16T02:29:12.692Z,917.19
2016-11-16T02:29:29.393Z,917.15
2016-11-16T02:29:46.267Z,917.2
2016-11-16T02:30:02.999Z,917.23
2016-11-16T02:30:19.734Z,917.19
2016-11-16T02:30:36.450Z,917.2
2016-11-16T02:30:53.162Z,917.19
2016-11-16T02:31:09.888Z,917.17
2016-11-16T02:31:26.601Z,917.22
2016-11-16T02:31:43.307Z,917.16
2016-11-16T02:32:00.024Z,917.21
2016-11-16T02:32:16.756Z,917.21
2016-11-16T02:32:33.481Z,917.23
2016-11-16T02:32:50.173Z,917.21
2016-11-16T02:33:06.883Z,917.23
2016-11-16T02:33:23.663Z,917.25
2016-11-16T02:33:40.357Z,917.19
2016-11-16T02:33:57.071Z,917.23
2016-11-16T02:34:13.797Z,917.18
2016-11-16T02:34:30.536Z,917.22
2016-11-16T02:34:47.261Z,917.22
2016-11-16T02:35:03.967Z,917.22
2016-11-16T02:35:20.668Z,917.24
2016-11-16T02:35:37.370Z,917.25
2016-11-16T02:35:54.091Z,917.21
2016-11-16T02:36:10.832Z,917.27
2016-11-16T02:36:27.559Z,917.26
2016-11-16T02:36:44.287Z,917.25
2016-11-16T02:37:01.026Z,917.28
2016-11-16T02:37:17.761Z,917.26
2016-11-16T02:37:34.478Z,917.28
2016-11-16T02:37:51.180Z,917.27
2016-11-16T02:38:07.882Z,917.24
2016-11-16T02:38:25.143Z,917.31
2016-11-16T02:38:41.903Z,917.26
2016-11-16T02:38:58.616Z,917.3
2016-11-16T02:39:15.348Z,917.28
2016-11-16T02:39:32.042Z,917.29
2016-11-16T02:39:49.274Z,917.28
2016-11-16T02:40:05.985Z,917.29
2016-11-16T02:40:22.723Z,917.31
2016-11-16T02:40:39.482Z,917.29
2016-11-16T02:40:56.201Z,917.32
2016-11-16T02:41:12.936Z,917.31
2016-11-16T02:41:29.650Z,917.34
2016-11-16T02:41:46.363Z,917.33
2016-11-16T02:42:03.109Z,917.29
2016-11-16T02:42:19.808Z,917.29
2016-11-16T02:42:36.522Z,917.33
2016-11-16T02:42:53.255Z,917.31
2016-11-16T02:43:09.994Z,917.35
2016-11-16T02:43:26.703Z,917.34
2016-11-16T02:43:43.429Z,917.36
2016-11-16T02:44:00.162Z,917.3
2016-11-16T02:44:16.894Z,917.36
2016-11-16T02:44:33.609Z,917.29
2016-11-16T02:44:50.479Z,917.26
2016-11-16T02:45:07.204Z,917.31
2016-11-16T02:45:23.937Z,917.3
2016-11-16T02:45:40.652Z,917.26
2016-11-16T02:45:57.365Z,917.33
2016-11-16T02:46:14.097Z,917.31
2016-11-16T02:46:30.796Z,917.3
2016-11-16T02:46:47.487Z,917.3
2016-11-16T02:47:04.217Z,917.31
2016-11-16T02:47:20.905Z,917.31
2016-11-16T02:47:37.639Z,917.3
2016-11-16T02:47:54.353Z,917.3
2016-11-16T02:48:11.062Z,917.3
2016-11-16T02:48:27.764Z,917.28
2016-11-16T02:48:44.492Z,917.26
2016-11-16T02:49:01.221Z,917.31
2016-11-16T02:49:17.951Z,917.23
2016-11-16T02:49:34.659Z,917.3
2016-11-16T02:49:51.381Z,917.28
2016-11-16T02:50:08.095Z,917.25
2016-11-16T02:50:24.811Z,917.26
2016-11-16T02:50:41.524Z,917.24
2016-11-16T02:50:58.239Z,917.28
2016-11-16T02:51:14.946Z,917.27
2016-11-16T02:51:31.670Z,917.26
2016-11-16T02:51:48.410Z,917.21
2016-11-16T02:52:05.169Z,917.22
2016-11-16T02:52:21.901Z,917.2
2016-11-16T02:52:38.619Z,917.22
2016-11-16T02:52:55.327Z,917.22
2016-11-16T02:53:12.054Z,917.17
2016-11-16T02:53:28.776Z,917.15
2016-11-16T02:53:45.507Z,917.17
2016-11-16T02:54:02.265Z,917.15
2016-11-16T02:54:19.539Z,917.18
2016-11-16T02:54:36.271Z,917.14
2016-11-16T02:54:53.089Z,917.17
2016-11-16T02:55:09.798Z,917.13
2016-11-16T02:55:26.525Z,917.14
2016-11-16T02:55:43.254Z,917.16
2016-11-16T02:55:59.955Z,917.13
2016-11-16T02:56:16.667Z,917.14
2016-11-16T02:56:33.384Z,917.14
2016-11-16T02:56:50.102Z,917.11
2016-11-16T02:57:06.817Z,917.09
2016-11-16T02:57:23.540Z,917.13
2016-11-16T02:57:40.262Z,917.13
2016-11-16T02:57:56.945Z,917.15
2016-11-16T02:58:13.649Z,917.11
2016-11-16T02:58:30.384Z,917.14
2016-11-16T02:58:47.104Z,917.12
2016-11-16T02:59:03.837Z,917.11
2016-11-16T02:59:20.565Z,917.12
2016-11-16T02:59:37.287Z,917.15
2016-11-16T02:59:54.108Z,917.16
2016-11-16T03:00:10.842Z,917.17
2016-11-16T03:00:27.539Z,917.19
2016-11-16T03:00:45.168Z,917.16
2016-11-16T03:01:17.219Z,917.17
2016-11-16T03:01:33.939Z,917.21
2016-11-16T03:01:50.656Z,917.18
2016-11-16T03:02:07.367Z,917.21
2016-11-16T03:02:24.093Z,917.17
2016-11-16T03:02:40.808Z,917.19
2016-11-16T03:02:57.530Z,917.21
2016-11-16T03:03:14.251Z,917.22
2016-11-16T03:03:30.976Z,917.21
2016-11-16T03:03:47.711Z,917.23
2016-11-16T03:04:04.479Z,917.17
2016-11-16T03:04:21.189Z,917.22
2016-11-16T03:04:37.941Z,917.21
2016-11-16T03:04:54.687Z,917.22
2016-11-16T03:05:11.399Z,917.23
2016-11-16T03:05:28.128Z,917.24
2016-11-16T03:05:44.846Z,917.21
2016-11-16T03:06:01.563Z,917.24
2016-11-16T03:06:18.270Z,917.25
2016-11-16T03:06:35.010Z,917.19
2016-11-16T03:06:51.750Z,917.17
2016-11-16T03:07:08.478Z,917.2
2016-11-16T03:07:25.175Z,917.18
2016-11-16T03:07:41.908Z,917.2
2016-11-16T03:07:58.616Z,917.19
2016-11-16T03:08:15.323Z,917.23
2016-11-16T03:08:32.058Z,917.19
2016-11-16T03:08:48.769Z,917.18
2016-11-16T03:09:05.479Z,917.2
2016-11-16T03:09:22.198Z,917.21
2016-11-16T03:09:38.936Z,917.23
2016-11-16T03:09:55.657Z,917.18
2016-11-16T03:10:12.409Z,917.2
2016-11-16T03:10:29.136Z,917.23
2016-11-16T03:10:45.850Z,917.21
2016-11-16T03:11:02.585Z,917.16
2016-11-16T03:11:19.306Z,917.18
2016-11-16T03:11:36.030Z,917.15
2016-11-16T03:11:52.832Z,917.17
2016-11-16T03:12:09.575Z,917.2
2016-11-16T03:12:26.346Z,917.22
2016-11-16T03:12:43.052Z,917.24
2016-11-16T03:12:59.751Z,917.19
2016-11-16T03:13:16.734Z,917.2
2016-11-16T03:13:33.739Z,917.18
2016-11-16T03:13:51.042Z,917.19
2016-11-16T03:14:07.774Z,917.21
2016-11-16T03:14:24.521Z,917.21
2016-11-16T03:14:41.236Z,917.21
2016-11-16T03:14:58.055Z,917.22
2016-11-16T03:15:14.780Z,917.21
2016-11-16T03:15:31.545Z,917.15
2016-11-16T03:15:48.282Z,917.2
2016-11-16T03:16:04.973Z,917.22
2016-11-16T03:16:21.740Z,917.21
2016-11-16T03:16:38.490Z,917.2
2016-11-16T03:16:55.217Z,917.21
2016-11-16T03:17:12.446Z,917.23
2016-11-16T03:17:29.187Z,917.25
2016-11-16T03:17:45.926Z,917.26
2016-11-16T03:18:02.644Z,917.26
2016-11-16T03:18:19.402Z,917.27
2016-11-16T03:18:36.141Z,917.25
2016-11-16T03:18:52.850Z,917.26
2016-11-16T03:19:09.578Z,917.28
2016-11-16T03:19:26.290Z,917.3
2016-11-16T03:19:43.023Z,917.29
2016-11-16T03:19:59.732Z,917.31
2016-11-16T03:20:16.446Z,917.31
2016-11-16T03:20:33.151Z,917.33
2016-11-16T03:20:49.859Z,917.32
2016-11-16T03:21:06.590Z,917.33
2016-11-16T03:21:23.366Z,917.32
2016-11-16T03:21:40.068Z,917.36
2016-11-16T03:21:56.795Z,917.33
2016-11-16T03:22:13.530Z,917.36
2016-11-16T03:22:30.253Z,917.34
2016-11-16T03:22:47.018Z,917.31
2016-11-16T03:23:03.750Z,917.29
2016-11-16T03:23:20.441Z,917.34
2016-11-16T03:23:37.173Z,917.34
2016-11-16T03:23:53.875Z,917.32
2016-11-16T03:24:10.602Z,917.31
2016-11-16T03:24:27.321Z,917.37
2016-11-16T03:24:44.056Z,917.34
2016-11-16T03:25:00.883Z,917.32
2016-11-16T03:25:17.613Z,917.32
2016-11-16T03:25:34.365Z,917.33
2016-11-16T03:25:51.085Z,917.32
2016-11-16T03:26:07.830Z,917.33
2016-11-16T03:26:24.541Z,917.34
2016-11-16T03:26:41.266Z,917.29
2016-11-16T03:26:57.978Z,917.31
2016-11-16T03:27:14.697Z,917.26
2016-11-16T03:27:31.402Z,917.26
2016-11-16T03:27:48.107Z,917.29
2016-11-16T03:28:04.799Z,917.31
2016-11-16T03:28:21.505Z,917.3
2016-11-16T03:28:38.213Z,917.29
2016-11-16T03:28:54.944Z,917.26
2016-11-16T03:29:11.687Z,917.26
2016-11-16T03:29:28.436Z,917.24
2016-11-16T03:29:45.194Z,917.23
2016-11-16T03:30:02.069Z,917.25
2016-11-16T03:30:19.304Z,917.24
2016-11-16T03:30:36.049Z,917.24